sensor_id;sensor_type;location;lat;lon;timestamp;temperature;humidity
13332;DHT22;6735;51.456;12.626;2022-12-29T00:01:39;8.90;73.20
13332;DHT22;6735;51.456;12.626;2022-12-29T00:04:05;8.90;73.30
13332;DHT22;6735;51.456;12.626;2022-12-29T00:06:31;8.80;73.40
13332;DHT22;6735;51.456;12.626;2022-12-29T00:08:56;8.80;73.10
13332;DHT22;6735;51.456;12.626;2022-12-29T00:11:25;8.90;73.00
13332;DHT22;6735;51.456;12.626;2022-12-29T00:13:51;8.90;73.20
13332;DHT22;6735;51.456;12.626;2022-12-29T00:16:36;8.80;73.10
13332;DHT22;6735;51.456;12.626;2022-12-29T00:19:02;8.90;72.90
13332;DHT22;6735;51.456;12.626;2022-12-29T00:21:28;8.90;72.90
13332;DHT22;6735;51.456;12.626;2022-12-29T00:24:18;8.90;72.90
13332;DHT22;6735;51.456;12.626;2022-12-29T00:29:47;8.90;72.70
13332;DHT22;6735;51.456;12.626;2022-12-29T00:32:31;8.90;72.80
13332;DHT22;6735;51.456;12.626;2022-12-29T00:35:30;8.90;72.70
13332;DHT22;6735;51.456;12.626;2022-12-29T00:38:03;8.90;72.70
13332;DHT22;6735;51.456;12.626;2022-12-29T00:40:49;8.90;72.80
13332;DHT22;6735;51.456;12.626;2022-12-29T00:43:33;8.90;72.60
13332;DHT22;6735;51.456;12.626;2022-12-29T00:46:17;9.00;72.80
13332;DHT22;6735;51.456;12.626;2022-12-29T00:48:42;9.00;72.80
13332;DHT22;6735;51.456;12.626;2022-12-29T00:51:26;9.00;72.90
13332;DHT22;6735;51.456;12.626;2022-12-29T00:53:51;9.00;73.00
13332;DHT22;6735;51.456;12.626;2022-12-29T00:56:17;9.00;72.90
13332;DHT22;6735;51.456;12.626;2022-12-29T00:58:42;9.00;72.70
13332;DHT22;6735;51.456;12.626;2022-12-29T01:01:08;9.00;72.80
13332;DHT22;6735;51.456;12.626;2022-12-29T01:03:37;9.10;72.80
13332;DHT22;6735;51.456;12.626;2022-12-29T01:06:04;9.00;72.70
13332;DHT22;6735;51.456;12.626;2022-12-29T01:08:31;9.10;72.70
13332;DHT22;6735;51.456;12.626;2022-12-29T01:11:07;9.00;72.90
13332;DHT22;6735;51.456;12.626;2022-12-29T01:13:33;9.10;72.90
13332;DHT22;6735;51.456;12.626;2022-12-29T01:15:59;9.10;73.00
13332;DHT22;6735;51.456;12.626;2022-12-29T01:18:25;9.10;73.30
13332;DHT22;6735;51.456;12.626;2022-12-29T01:20:51;9.00;73.50
13332;DHT22;6735;51.456;12.626;2022-12-29T01:23:17;9.10;73.70
13332;DHT22;6735;51.456;12.626;2022-12-29T01:25:42;9.00;73.80
13332;DHT22;6735;51.456;12.626;2022-12-29T01:28:08;9.00;73.80
13332;DHT22;6735;51.456;12.626;2022-12-29T01:30:34;9.00;73.90
13332;DHT22;6735;51.456;12.626;2022-12-29T01:33:00;9.00;73.90
13332;DHT22;6735;51.456;12.626;2022-12-29T01:35:26;8.90;74.20
13332;DHT22;6735;51.456;12.626;2022-12-29T01:37:51;9.00;74.10
13332;DHT22;6735;51.456;12.626;2022-12-29T01:40:17;9.00;74.30
13332;DHT22;6735;51.456;12.626;2022-12-29T01:42:42;9.00;74.50
13332;DHT22;6735;51.456;12.626;2022-12-29T01:45:12;9.00;74.60
13332;DHT22;6735;51.456;12.626;2022-12-29T01:47:43;9.00;74.70
13332;DHT22;6735;51.456;12.626;2022-12-29T01:50:13;9.00;74.80
13332;DHT22;6735;51.456;12.626;2022-12-29T01:52:54;9.00;75.10
13332;DHT22;6735;51.456;12.626;2022-12-29T01:55:21;9.00;74.90
13332;DHT22;6735;51.456;12.626;2022-12-29T01:57:49;9.00;75.00
13332;DHT22;6735;51.456;12.626;2022-12-29T02:00:16;8.90;75.10
13332;DHT22;6735;51.456;12.626;2022-12-29T02:02:45;8.90;75.30
13332;DHT22;6735;51.456;12.626;2022-12-29T02:05:19;8.90;75.40
13332;DHT22;6735;51.456;12.626;2022-12-29T02:07:46;8.80;75.80
13332;DHT22;6735;51.456;12.626;2022-12-29T02:10:13;8.80;75.90
13332;DHT22;6735;51.456;12.626;2022-12-29T02:12:39;8.90;75.90
13332;DHT22;6735;51.456;12.626;2022-12-29T02:15:05;8.90;75.90
13332;DHT22;6735;51.456;12.626;2022-12-29T02:18:12;8.90;76.30
13332;DHT22;6735;51.456;12.626;2022-12-29T02:26:35;8.90;76.60
13332;DHT22;6735;51.456;12.626;2022-12-29T02:32:28;8.90;76.90
13332;DHT22;6735;51.456;12.626;2022-12-29T02:35:22;9.00;76.90
13332;DHT22;6735;51.456;12.626;2022-12-29T02:43:40;9.00;76.90
13332;DHT22;6735;51.456;12.626;2022-12-29T02:46:41;8.90;77.20
13332;DHT22;6735;51.456;12.626;2022-12-29T02:49:22;9.00;77.30
13332;DHT22;6735;51.456;12.626;2022-12-29T02:52:06;9.00;77.30
13332;DHT22;6735;51.456;12.626;2022-12-29T02:54:33;9.00;77.20
13332;DHT22;6735;51.456;12.626;2022-12-29T03:00:08;9.00;77.30
13332;DHT22;6735;51.456;12.626;2022-12-29T03:03:00;9.00;77.30
13332;DHT22;6735;51.456;12.626;2022-12-29T03:05:50;9.00;77.30
13332;DHT22;6735;51.456;12.626;2022-12-29T03:08:39;9.00;77.50
13332;DHT22;6735;51.456;12.626;2022-12-29T03:11:12;9.00;77.70
13332;DHT22;6735;51.456;12.626;2022-12-29T03:14:14;9.10;77.50
13332;DHT22;6735;51.456;12.626;2022-12-29T03:17:07;9.00;77.60
13332;DHT22;6735;51.456;12.626;2022-12-29T03:19:41;9.00;77.60
13332;DHT22;6735;51.456;12.626;2022-12-29T03:22:17;9.00;77.70
13332;DHT22;6735;51.456;12.626;2022-12-29T03:24:56;9.00;77.60
13332;DHT22;6735;51.456;12.626;2022-12-29T03:27:27;9.10;77.60
13332;DHT22;6735;51.456;12.626;2022-12-29T03:29:58;9.10;77.70
13332;DHT22;6735;51.456;12.626;2022-12-29T03:32:35;9.10;77.80
13332;DHT22;6735;51.456;12.626;2022-12-29T03:35:03;9.10;77.70
13332;DHT22;6735;51.456;12.626;2022-12-29T03:37:35;9.10;77.70
13332;DHT22;6735;51.456;12.626;2022-12-29T03:40:01;9.10;77.70
13332;DHT22;6735;51.456;12.626;2022-12-29T03:42:30;9.10;77.70
13332;DHT22;6735;51.456;12.626;2022-12-29T03:44:57;9.20;77.60
13332;DHT22;6735;51.456;12.626;2022-12-29T03:47:23;9.20;77.60
13332;DHT22;6735;51.456;12.626;2022-12-29T03:49:49;9.20;77.60
13332;DHT22;6735;51.456;12.626;2022-12-29T03:52:15;9.30;77.40
13332;DHT22;6735;51.456;12.626;2022-12-29T03:54:40;9.30;77.40
13332;DHT22;6735;51.456;12.626;2022-12-29T03:57:06;9.40;77.30
13332;DHT22;6735;51.456;12.626;2022-12-29T03:59:32;9.40;77.20
13332;DHT22;6735;51.456;12.626;2022-12-29T04:01:57;9.40;77.10
13332;DHT22;6735;51.456;12.626;2022-12-29T04:04:22;9.40;77.10
13332;DHT22;6735;51.456;12.626;2022-12-29T04:06:48;9.40;77.00
13332;DHT22;6735;51.456;12.626;2022-12-29T04:09:13;9.40;77.00
13332;DHT22;6735;51.456;12.626;2022-12-29T04:11:39;9.50;77.00
13332;DHT22;6735;51.456;12.626;2022-12-29T04:14:04;9.50;77.00
13332;DHT22;6735;51.456;12.626;2022-12-29T04:16:30;9.50;76.90
13332;DHT22;6735;51.456;12.626;2022-12-29T04:18:55;9.60;76.60
13332;DHT22;6735;51.456;12.626;2022-12-29T04:21:21;9.60;76.70
13332;DHT22;6735;51.456;12.626;2022-12-29T04:23:46;9.60;76.80
13332;DHT22;6735;51.456;12.626;2022-12-29T04:26:12;9.60;76.90
13332;DHT22;6735;51.456;12.626;2022-12-29T04:28:38;9.60;77.10
13332;DHT22;6735;51.456;12.626;2022-12-29T04:31:04;9.60;77.10
13332;DHT22;6735;51.456;12.626;2022-12-29T04:33:30;9.60;77.30
13332;DHT22;6735;51.456;12.626;2022-12-29T04:35:55;9.50;77.30
13332;DHT22;6735;51.456;12.626;2022-12-29T04:38:23;9.50;77.50
13332;DHT22;6735;51.456;12.626;2022-12-29T04:40:49;9.50;77.60
13332;DHT22;6735;51.456;12.626;2022-12-29T04:43:15;9.60;77.60
13332;DHT22;6735;51.456;12.626;2022-12-29T04:45:45;9.60;77.60
13332;DHT22;6735;51.456;12.626;2022-12-29T04:48:11;9.60;77.70
13332;DHT22;6735;51.456;12.626;2022-12-29T04:50:37;9.60;77.60
13332;DHT22;6735;51.456;12.626;2022-12-29T04:53:03;9.70;77.70
13332;DHT22;6735;51.456;12.626;2022-12-29T04:55:29;9.70;77.50
13332;DHT22;6735;51.456;12.626;2022-12-29T04:57:54;9.70;77.50
13332;DHT22;6735;51.456;12.626;2022-12-29T05:00:20;9.70;77.40
13332;DHT22;6735;51.456;12.626;2022-12-29T05:02:45;9.70;77.50
13332;DHT22;6735;51.456;12.626;2022-12-29T05:05:11;9.70;77.40
13332;DHT22;6735;51.456;12.626;2022-12-29T05:07:36;9.70;77.60
13332;DHT22;6735;51.456;12.626;2022-12-29T05:10:02;9.80;77.60
13332;DHT22;6735;51.456;12.626;2022-12-29T05:12:33;9.70;77.70
13332;DHT22;6735;51.456;12.626;2022-12-29T05:14:59;9.80;77.70
13332;DHT22;6735;51.456;12.626;2022-12-29T05:17:25;9.80;77.70
13332;DHT22;6735;51.456;12.626;2022-12-29T05:19:50;9.80;77.70
13332;DHT22;6735;51.456;12.626;2022-12-29T05:22:16;9.80;77.80
13332;DHT22;6735;51.456;12.626;2022-12-29T05:24:41;9.70;78.00
13332;DHT22;6735;51.456;12.626;2022-12-29T05:27:07;9.70;78.20
13332;DHT22;6735;51.456;12.626;2022-12-29T05:29:32;9.70;78.40
13332;DHT22;6735;51.456;12.626;2022-12-29T05:31:58;9.70;78.40
13332;DHT22;6735;51.456;12.626;2022-12-29T05:34:23;9.60;78.50
13332;DHT22;6735;51.456;12.626;2022-12-29T05:36:49;9.60;78.60
13332;DHT22;6735;51.456;12.626;2022-12-29T05:39:14;9.60;78.70
13332;DHT22;6735;51.456;12.626;2022-12-29T05:41:39;9.60;78.90
13332;DHT22;6735;51.456;12.626;2022-12-29T05:44:05;9.60;79.10
13332;DHT22;6735;51.456;12.626;2022-12-29T05:46:31;9.60;79.10
13332;DHT22;6735;51.456;12.626;2022-12-29T05:48:57;9.50;79.20
13332;DHT22;6735;51.456;12.626;2022-12-29T05:51:22;9.50;79.40
13332;DHT22;6735;51.456;12.626;2022-12-29T05:53:48;9.50;79.50
13332;DHT22;6735;51.456;12.626;2022-12-29T05:56:14;9.50;79.50
13332;DHT22;6735;51.456;12.626;2022-12-29T05:58:39;9.50;79.30
13332;DHT22;6735;51.456;12.626;2022-12-29T06:01:05;9.50;79.50
13332;DHT22;6735;51.456;12.626;2022-12-29T06:03:30;9.50;79.70
13332;DHT22;6735;51.456;12.626;2022-12-29T06:05:56;9.40;79.70
13332;DHT22;6735;51.456;12.626;2022-12-29T06:08:21;9.40;79.60
13332;DHT22;6735;51.456;12.626;2022-12-29T06:10:47;9.40;80.00
13332;DHT22;6735;51.456;12.626;2022-12-29T06:13:12;9.40;80.00
13332;DHT22;6735;51.456;12.626;2022-12-29T06:15:38;9.40;80.10
13332;DHT22;6735;51.456;12.626;2022-12-29T06:18:03;9.40;80.10
13332;DHT22;6735;51.456;12.626;2022-12-29T06:20:29;9.40;80.10
13332;DHT22;6735;51.456;12.626;2022-12-29T06:22:54;9.40;80.40
13332;DHT22;6735;51.456;12.626;2022-12-29T06:25:20;9.30;80.40
13332;DHT22;6735;51.456;12.626;2022-12-29T06:27:45;9.30;80.50
13332;DHT22;6735;51.456;12.626;2022-12-29T06:30:12;9.30;80.40
13332;DHT22;6735;51.456;12.626;2022-12-29T06:32:38;9.40;80.50
13332;DHT22;6735;51.456;12.626;2022-12-29T06:35:04;9.40;80.30
13332;DHT22;6735;51.456;12.626;2022-12-29T06:37:31;9.50;80.20
13332;DHT22;6735;51.456;12.626;2022-12-29T06:39:57;9.60;80.10
13332;DHT22;6735;51.456;12.626;2022-12-29T06:42:22;9.60;79.90
13332;DHT22;6735;51.456;12.626;2022-12-29T06:44:48;9.70;79.70
13332;DHT22;6735;51.456;12.626;2022-12-29T06:47:13;9.70;79.60
13332;DHT22;6735;51.456;12.626;2022-12-29T06:49:39;9.80;79.50
13332;DHT22;6735;51.456;12.626;2022-12-29T06:52:04;9.80;79.30
13332;DHT22;6735;51.456;12.626;2022-12-29T06:54:30;9.80;79.30
13332;DHT22;6735;51.456;12.626;2022-12-29T06:56:56;9.80;79.40
13332;DHT22;6735;51.456;12.626;2022-12-29T06:59:22;9.80;79.40
13332;DHT22;6735;51.456;12.626;2022-12-29T07:01:47;9.80;79.60
13332;DHT22;6735;51.456;12.626;2022-12-29T07:04:13;9.80;79.70
13332;DHT22;6735;51.456;12.626;2022-12-29T07:06:39;9.80;79.70
13332;DHT22;6735;51.456;12.626;2022-12-29T07:09:06;9.80;79.80
13332;DHT22;6735;51.456;12.626;2022-12-29T07:11:32;9.90;79.80
13332;DHT22;6735;51.456;12.626;2022-12-29T07:13:57;9.80;79.80
13332;DHT22;6735;51.456;12.626;2022-12-29T07:16:23;9.80;79.70
13332;DHT22;6735;51.456;12.626;2022-12-29T07:18:48;9.80;79.90
13332;DHT22;6735;51.456;12.626;2022-12-29T07:21:14;9.80;80.00
13332;DHT22;6735;51.456;12.626;2022-12-29T07:23:39;9.80;80.00
13332;DHT22;6735;51.456;12.626;2022-12-29T07:26:07;9.80;80.20
13332;DHT22;6735;51.456;12.626;2022-12-29T07:28:34;9.80;80.30
13332;DHT22;6735;51.456;12.626;2022-12-29T07:31:00;9.70;80.30
13332;DHT22;6735;51.456;12.626;2022-12-29T07:33:28;9.70;80.40
13332;DHT22;6735;51.456;12.626;2022-12-29T07:35:53;9.60;80.60
13332;DHT22;6735;51.456;12.626;2022-12-29T07:38:19;9.70;80.70
13332;DHT22;6735;51.456;12.626;2022-12-29T07:40:44;9.60;80.90
13332;DHT22;6735;51.456;12.626;2022-12-29T07:43:10;9.70;80.80
13332;DHT22;6735;51.456;12.626;2022-12-29T07:45:35;9.70;80.80
13332;DHT22;6735;51.456;12.626;2022-12-29T07:48:01;9.70;80.80
13332;DHT22;6735;51.456;12.626;2022-12-29T07:50:27;9.70;80.70
13332;DHT22;6735;51.456;12.626;2022-12-29T07:52:53;9.70;80.80
13332;DHT22;6735;51.456;12.626;2022-12-29T07:55:18;9.70;81.00
13332;DHT22;6735;51.456;12.626;2022-12-29T07:57:44;9.70;81.10
13332;DHT22;6735;51.456;12.626;2022-12-29T08:00:10;9.70;81.20
13332;DHT22;6735;51.456;12.626;2022-12-29T08:02:36;9.70;81.10
13332;DHT22;6735;51.456;12.626;2022-12-29T08:05:02;9.80;81.10
13332;DHT22;6735;51.456;12.626;2022-12-29T08:07:27;9.70;81.20
13332;DHT22;6735;51.456;12.626;2022-12-29T08:09:53;9.80;81.20
13332;DHT22;6735;51.456;12.626;2022-12-29T08:12:18;9.80;81.10
13332;DHT22;6735;51.456;12.626;2022-12-29T08:14:44;9.90;81.10
13332;DHT22;6735;51.456;12.626;2022-12-29T08:17:09;9.90;81.20
13332;DHT22;6735;51.456;12.626;2022-12-29T08:19:35;9.90;81.10
13332;DHT22;6735;51.456;12.626;2022-12-29T08:22:01;9.90;81.00
13332;DHT22;6735;51.456;12.626;2022-12-29T08:24:26;9.90;81.00
13332;DHT22;6735;51.456;12.626;2022-12-29T08:26:52;9.90;81.10
13332;DHT22;6735;51.456;12.626;2022-12-29T08:29:17;9.90;81.20
13332;DHT22;6735;51.456;12.626;2022-12-29T08:31:43;9.90;81.20
13332;DHT22;6735;51.456;12.626;2022-12-29T08:34:08;9.90;81.30
13332;DHT22;6735;51.456;12.626;2022-12-29T08:36:34;9.90;81.10
13332;DHT22;6735;51.456;12.626;2022-12-29T08:38:59;9.80;81.20
13332;DHT22;6735;51.456;12.626;2022-12-29T08:41:25;9.90;81.20
13332;DHT22;6735;51.456;12.626;2022-12-29T08:43:50;9.90;81.00
13332;DHT22;6735;51.456;12.626;2022-12-29T08:46:16;9.90;80.90
13332;DHT22;6735;51.456;12.626;2022-12-29T08:48:42;10.10;82.30
13332;DHT22;6735;51.456;12.626;2022-12-29T08:51:08;10.10;80.60
13332;DHT22;6735;51.456;12.626;2022-12-29T08:53:34;10.20;80.50
13332;DHT22;6735;51.456;12.626;2022-12-29T08:56:01;10.30;80.60
13332;DHT22;6735;51.456;12.626;2022-12-29T08:58:27;10.30;79.90
13332;DHT22;6735;51.456;12.626;2022-12-29T09:00:53;10.40;79.90
13332;DHT22;6735;51.456;12.626;2022-12-29T09:03:19;10.40;79.70
13332;DHT22;6735;51.456;12.626;2022-12-29T09:05:52;10.40;79.50
13332;DHT22;6735;51.456;12.626;2022-12-29T09:08:18;10.50;79.50
13332;DHT22;6735;51.456;12.626;2022-12-29T09:10:44;10.50;79.10
13332;DHT22;6735;51.456;12.626;2022-12-29T09:13:11;10.50;79.20
13332;DHT22;6735;51.456;12.626;2022-12-29T09:15:37;10.60;79.00
13332;DHT22;6735;51.456;12.626;2022-12-29T09:18:02;10.60;79.00
13332;DHT22;6735;51.456;12.626;2022-12-29T09:20:28;10.60;78.70
13332;DHT22;6735;51.456;12.626;2022-12-29T09:22:53;10.60;78.50
13332;DHT22;6735;51.456;12.626;2022-12-29T09:25:19;10.70;78.50
13332;DHT22;6735;51.456;12.626;2022-12-29T09:27:45;10.70;78.20
13332;DHT22;6735;51.456;12.626;2022-12-29T09:30:13;10.70;77.90
13332;DHT22;6735;51.456;12.626;2022-12-29T09:32:39;10.80;77.70
13332;DHT22;6735;51.456;12.626;2022-12-29T09:35:05;10.80;77.60
13332;DHT22;6735;51.456;12.626;2022-12-29T09:37:31;10.80;77.40
13332;DHT22;6735;51.456;12.626;2022-12-29T09:39:56;10.80;77.50
13332;DHT22;6735;51.456;12.626;2022-12-29T09:42:44;10.90;77.30
13332;DHT22;6735;51.456;12.626;2022-12-29T09:47:59;11.00;77.00
13332;DHT22;6735;51.456;12.626;2022-12-29T09:50:30;11.10;77.10
13332;DHT22;6735;51.456;12.626;2022-12-29T09:53:20;11.10;76.90
13332;DHT22;6735;51.456;12.626;2022-12-29T09:55:53;11.20;76.60
13332;DHT22;6735;51.456;12.626;2022-12-29T10:01:04;11.20;76.30
13332;DHT22;6735;51.456;12.626;2022-12-29T10:03:46;11.30;76.40
13332;DHT22;6735;51.456;12.626;2022-12-29T10:06:26;11.30;76.20
13332;DHT22;6735;51.456;12.626;2022-12-29T10:25:47;11.70;74.40
13332;DHT22;6735;51.456;12.626;2022-12-29T10:28:25;11.70;74.00
13332;DHT22;6735;51.456;12.626;2022-12-29T10:30:58;11.70;74.30
13332;DHT22;6735;51.456;12.626;2022-12-29T10:33:34;11.70;74.10
13332;DHT22;6735;51.456;12.626;2022-12-29T10:36:14;11.70;73.70
13332;DHT22;6735;51.456;12.626;2022-12-29T10:38:51;11.60;73.50
13332;DHT22;6735;51.456;12.626;2022-12-29T10:41:28;11.70;73.90
13332;DHT22;6735;51.456;12.626;2022-12-29T10:43:55;11.70;73.90
13332;DHT22;6735;51.456;12.626;2022-12-29T10:46:25;11.70;73.70
13332;DHT22;6735;51.456;12.626;2022-12-29T10:48:52;11.80;73.40
13332;DHT22;6735;51.456;12.626;2022-12-29T10:51:34;11.90;73.30
13332;DHT22;6735;51.456;12.626;2022-12-29T10:54:23;12.00;73.30
13332;DHT22;6735;51.456;12.626;2022-12-29T10:56:59;12.10;73.20
13332;DHT22;6735;51.456;12.626;2022-12-29T10:59:31;12.10;73.20
13332;DHT22;6735;51.456;12.626;2022-12-29T11:04:57;12.20;72.80
13332;DHT22;6735;51.456;12.626;2022-12-29T11:07:27;12.20;72.60
13332;DHT22;6735;51.456;12.626;2022-12-29T11:09:53;12.10;72.60
13332;DHT22;6735;51.456;12.626;2022-12-29T11:12:25;12.10;72.80
13332;DHT22;6735;51.456;12.626;2022-12-29T11:17:50;12.00;73.00
13332;DHT22;6735;51.456;12.626;2022-12-29T11:20:33;12.00;73.20
13332;DHT22;6735;51.456;12.626;2022-12-29T11:23:01;12.10;73.40
13332;DHT22;6735;51.456;12.626;2022-12-29T11:25:27;12.20;73.40
13332;DHT22;6735;51.456;12.626;2022-12-29T11:28:22;12.20;73.20
13332;DHT22;6735;51.456;12.626;2022-12-29T11:30:59;12.30;73.00
13332;DHT22;6735;51.456;12.626;2022-12-29T11:33:28;12.40;73.40
13332;DHT22;6735;51.456;12.626;2022-12-29T11:35:58;12.40;73.20
13332;DHT22;6735;51.456;12.626;2022-12-29T11:38:36;12.50;72.90
13332;DHT22;6735;51.456;12.626;2022-12-29T11:41:04;12.60;72.60
13332;DHT22;6735;51.456;12.626;2022-12-29T11:43:33;12.70;72.50
13332;DHT22;6735;51.456;12.626;2022-12-29T11:46:00;12.70;72.30
13332;DHT22;6735;51.456;12.626;2022-12-29T11:48:33;12.70;72.30
13332;DHT22;6735;51.456;12.626;2022-12-29T11:51:03;12.80;72.00
13332;DHT22;6735;51.456;12.626;2022-12-29T11:53:39;12.90;71.30
13332;DHT22;6735;51.456;12.626;2022-12-29T11:56:33;13.00;71.30
13332;DHT22;6735;51.456;12.626;2022-12-29T12:02:01;13.10;70.30
13332;DHT22;6735;51.456;12.626;2022-12-29T12:04:30;13.10;70.50
13332;DHT22;6735;51.456;12.626;2022-12-29T12:07:05;13.20;70.50
13332;DHT22;6735;51.456;12.626;2022-12-29T12:09:40;13.20;70.00
13332;DHT22;6735;51.456;12.626;2022-12-29T12:12:13;13.20;70.10
13332;DHT22;6735;51.456;12.626;2022-12-29T12:14:54;13.30;70.00
13332;DHT22;6735;51.456;12.626;2022-12-29T12:17:49;13.40;69.80
13332;DHT22;6735;51.456;12.626;2022-12-29T12:20:22;13.40;69.70
13332;DHT22;6735;51.456;12.626;2022-12-29T12:23:01;13.50;69.30
13332;DHT22;6735;51.456;12.626;2022-12-29T12:25:40;13.50;69.60
13332;DHT22;6735;51.456;12.626;2022-12-29T12:28:19;13.50;69.00
13332;DHT22;6735;51.456;12.626;2022-12-29T12:30:48;13.60;69.50
13332;DHT22;6735;51.456;12.626;2022-12-29T12:33:22;13.60;68.80
13332;DHT22;6735;51.456;12.626;2022-12-29T12:38:55;13.70;69.10
13332;DHT22;6735;51.456;12.626;2022-12-29T12:41:47;13.70;69.40
13332;DHT22;6735;51.456;12.626;2022-12-29T12:44:29;13.70;69.00
13332;DHT22;6735;51.456;12.626;2022-12-29T12:47:16;13.70;69.10
13332;DHT22;6735;51.456;12.626;2022-12-29T12:53:17;13.70;69.00
13332;DHT22;6735;51.456;12.626;2022-12-29T12:56:03;13.70;68.50
13332;DHT22;6735;51.456;12.626;2022-12-29T12:59:11;13.70;69.00
13332;DHT22;6735;51.456;12.626;2022-12-29T13:01:56;13.70;68.80
13332;DHT22;6735;51.456;12.626;2022-12-29T13:10:22;13.70;69.10
13332;DHT22;6735;51.456;12.626;2022-12-29T13:15:46;13.60;69.20
13332;DHT22;6735;51.456;12.626;2022-12-29T13:18:22;13.60;69.10
13332;DHT22;6735;51.456;12.626;2022-12-29T13:21:20;13.60;69.00
13332;DHT22;6735;51.456;12.626;2022-12-29T13:26:35;13.50;69.20
13332;DHT22;6735;51.456;12.626;2022-12-29T13:29:17;13.50;69.10
13332;DHT22;6735;51.456;12.626;2022-12-29T13:34:47;13.30;69.50
13332;DHT22;6735;51.456;12.626;2022-12-29T13:37:17;13.30;69.00
13332;DHT22;6735;51.456;12.626;2022-12-29T13:40:03;13.20;69.30
13332;DHT22;6735;51.456;12.626;2022-12-29T13:42:35;13.20;69.40
13332;DHT22;6735;51.456;12.626;2022-12-29T13:45:07;13.20;69.30
13332;DHT22;6735;51.456;12.626;2022-12-29T13:47:41;13.20;69.20
13332;DHT22;6735;51.456;12.626;2022-12-29T13:50:18;13.20;69.30
13332;DHT22;6735;51.456;12.626;2022-12-29T13:55:25;13.10;69.60
13332;DHT22;6735;51.456;12.626;2022-12-29T13:58:00;13.10;69.60
13332;DHT22;6735;51.456;12.626;2022-12-29T14:00:53;13.10;69.70
13332;DHT22;6735;51.456;12.626;2022-12-29T14:06:11;13.00;69.80
13332;DHT22;6735;51.456;12.626;2022-12-29T14:08:37;13.00;70.00
13332;DHT22;6735;51.456;12.626;2022-12-29T14:11:10;13.00;70.10
13332;DHT22;6735;51.456;12.626;2022-12-29T14:13:38;13.00;70.10
13332;DHT22;6735;51.456;12.626;2022-12-29T14:16:05;12.90;70.00
13332;DHT22;6735;51.456;12.626;2022-12-29T14:18:33;12.90;70.10
13332;DHT22;6735;51.456;12.626;2022-12-29T14:23:43;12.70;70.40
13332;DHT22;6735;51.456;12.626;2022-12-29T14:28:56;12.50;70.80
13332;DHT22;6735;51.456;12.626;2022-12-29T14:31:34;12.40;71.10
13332;DHT22;6735;51.456;12.626;2022-12-29T14:36:35;12.40;71.50
13332;DHT22;6735;51.456;12.626;2022-12-29T14:39:02;12.30;71.60
13332;DHT22;6735;51.456;12.626;2022-12-29T14:41:34;12.20;71.60
13332;DHT22;6735;51.456;12.626;2022-12-29T14:44:09;12.20;71.70
13332;DHT22;6735;51.456;12.626;2022-12-29T14:46:59;12.10;72.00
13332;DHT22;6735;51.456;12.626;2022-12-29T14:49:28;12.00;72.30
13332;DHT22;6735;51.456;12.626;2022-12-29T14:52:13;11.90;72.50
13332;DHT22;6735;51.456;12.626;2022-12-29T14:54:43;11.90;72.60
13332;DHT22;6735;51.456;12.626;2022-12-29T14:57:17;11.80;73.00
13332;DHT22;6735;51.456;12.626;2022-12-29T14:59:44;11.70;73.20
13332;DHT22;6735;51.456;12.626;2022-12-29T15:02:16;11.70;73.40
13332;DHT22;6735;51.456;12.626;2022-12-29T15:04:44;11.60;73.50
13332;DHT22;6735;51.456;12.626;2022-12-29T15:07:10;11.60;73.70
13332;DHT22;6735;51.456;12.626;2022-12-29T15:10:06;11.50;73.80
13332;DHT22;6735;51.456;12.626;2022-12-29T15:12:47;11.40;73.80
13332;DHT22;6735;51.456;12.626;2022-12-29T15:15:19;11.40;74.00
13332;DHT22;6735;51.456;12.626;2022-12-29T15:17:45;11.20;74.30
13332;DHT22;6735;51.456;12.626;2022-12-29T15:20:27;11.20;74.50
13332;DHT22;6735;51.456;12.626;2022-12-29T15:22:58;11.20;74.60
13332;DHT22;6735;51.456;12.626;2022-12-29T15:25:26;11.10;74.80
13332;DHT22;6735;51.456;12.626;2022-12-29T15:28:01;11.10;74.60
13332;DHT22;6735;51.456;12.626;2022-12-29T15:30:27;11.10;74.60
13332;DHT22;6735;51.456;12.626;2022-12-29T15:32:53;11.10;74.90
13332;DHT22;6735;51.456;12.626;2022-12-29T15:37:48;11.10;75.00
13332;DHT22;6735;51.456;12.626;2022-12-29T15:40:32;11.00;75.10
13332;DHT22;6735;51.456;12.626;2022-12-29T15:43:28;11.00;75.10
13332;DHT22;6735;51.456;12.626;2022-12-29T15:45:56;11.00;75.30
13332;DHT22;6735;51.456;12.626;2022-12-29T15:48:23;10.90;75.40
13332;DHT22;6735;51.456;12.626;2022-12-29T15:50:50;10.90;75.60
13332;DHT22;6735;51.456;12.626;2022-12-29T15:53:30;10.80;76.00
13332;DHT22;6735;51.456;12.626;2022-12-29T15:56:07;10.70;75.90
13332;DHT22;6735;51.456;12.626;2022-12-29T15:58:44;10.60;75.90
13332;DHT22;6735;51.456;12.626;2022-12-29T16:01:17;10.50;76.20
13332;DHT22;6735;51.456;12.626;2022-12-29T16:03:44;10.40;76.60
13332;DHT22;6735;51.456;12.626;2022-12-29T16:06:26;10.40;76.80
13332;DHT22;6735;51.456;12.626;2022-12-29T16:08:57;10.30;76.40
13332;DHT22;6735;51.456;12.626;2022-12-29T16:11:30;10.30;76.40
13332;DHT22;6735;51.456;12.626;2022-12-29T16:13:57;10.20;76.80
13332;DHT22;6735;51.456;12.626;2022-12-29T16:16:31;10.10;76.90
13332;DHT22;6735;51.456;12.626;2022-12-29T16:19:03;10.00;76.80
13332;DHT22;6735;51.456;12.626;2022-12-29T16:21:35;9.80;77.20
13332;DHT22;6735;51.456;12.626;2022-12-29T16:24:06;9.80;77.30
13332;DHT22;6735;51.456;12.626;2022-12-29T16:26:32;9.70;78.00
13332;DHT22;6735;51.456;12.626;2022-12-29T16:28:59;9.50;78.40
13332;DHT22;6735;51.456;12.626;2022-12-29T16:31:33;9.50;78.00
13332;DHT22;6735;51.456;12.626;2022-12-29T16:34:11;9.30;78.20
13332;DHT22;6735;51.456;12.626;2022-12-29T16:36:58;9.20;78.40
13332;DHT22;6735;51.456;12.626;2022-12-29T16:39:38;9.10;78.70
13332;DHT22;6735;51.456;12.626;2022-12-29T16:48:30;8.80;79.80
13332;DHT22;6735;51.456;12.626;2022-12-29T16:50:31;8.80;80.10
13332;DHT22;6735;51.456;12.626;2022-12-29T16:52:58;8.70;80.20
13332;DHT22;6735;51.456;12.626;2022-12-29T16:55:23;8.60;80.50
13332;DHT22;6735;51.456;12.626;2022-12-29T16:57:52;8.60;80.70
13332;DHT22;6735;51.456;12.626;2022-12-29T17:00:29;8.50;80.90
13332;DHT22;6735;51.456;12.626;2022-12-29T17:02:59;8.50;81.00
13332;DHT22;6735;51.456;12.626;2022-12-29T17:05:25;8.40;81.20
13332;DHT22;6735;51.456;12.626;2022-12-29T17:07:51;8.30;81.10
13332;DHT22;6735;51.456;12.626;2022-12-29T17:10:18;8.30;81.50
13332;DHT22;6735;51.456;12.626;2022-12-29T17:12:46;8.20;81.50
13332;DHT22;6735;51.456;12.626;2022-12-29T17:15:19;8.10;81.50
13332;DHT22;6735;51.456;12.626;2022-12-29T17:17:47;8.10;81.30
13332;DHT22;6735;51.456;12.626;2022-12-29T17:22:43;7.90;81.40
13332;DHT22;6735;51.456;12.626;2022-12-29T17:25:17;7.90;81.40
13332;DHT22;6735;51.456;12.626;2022-12-29T17:27:46;7.80;81.50
13332;DHT22;6735;51.456;12.626;2022-12-29T17:30:16;7.80;82.20
13332;DHT22;6735;51.456;12.626;2022-12-29T17:32:44;7.70;82.70
13332;DHT22;6735;51.456;12.626;2022-12-29T17:35:15;7.70;83.70
13332;DHT22;6735;51.456;12.626;2022-12-29T17:37:41;7.80;83.50
13332;DHT22;6735;51.456;12.626;2022-12-29T17:40:12;7.80;83.10